createdAt,value
2023-11-07T00:03:42.398Z,11.35
2023-11-07T00:09:04.404Z,11.27
2023-11-07T00:14:27.481Z,10.63
2023-11-07T00:19:49.215Z,12.32
2023-11-07T00:25:10.835Z,13.43
2023-11-07T00:30:33.659Z,9.07
2023-11-07T00:35:55.537Z,10.13
2023-11-07T00:41:17.098Z,14.82
2023-11-07T00:46:38.885Z,10.43
2023-11-07T00:52:01.503Z,10.18
2023-11-07T00:57:23.138Z,12.48
2023-11-07T01:02:46.092Z,11.35
2023-11-07T01:08:08.017Z,11.43
2023-11-07T01:13:29.748Z,11.35
2023-11-07T01:18:53.483Z,6.13
2023-11-07T01:24:15.291Z,12.55
2023-11-07T01:29:37.055Z,18.17
2023-11-07T01:34:59.068Z,14.20
2023-11-07T01:40:20.794Z,13.43
2023-11-07T01:45:43.200Z,13.13
2023-11-07T01:51:05.847Z,15.98
2023-11-07T01:56:29.242Z,13.98
2023-11-07T02:01:53.332Z,9.02
2023-11-07T02:07:15.179Z,7.75
2023-11-07T02:12:39.628Z,11.23
2023-11-07T02:18:01.929Z,14.95
2023-11-07T02:23:31.015Z,11.43
2023-11-07T02:28:53.823Z,10.60
2023-11-07T02:34:15.577Z,12.57
2023-11-07T02:39:37.186Z,13.68
2023-11-07T02:44:59.031Z,14.60
2023-11-07T02:50:21.421Z,16.95
2023-11-07T02:55:43.479Z,11.98
2023-11-07T03:01:05.628Z,14.50
2023-11-07T03:06:27.431Z,14.40
2023-11-07T03:11:49.076Z,11.43
2023-11-07T03:17:10.717Z,12.90
2023-11-07T03:22:32.612Z,13.65
2023-11-07T03:27:54.243Z,15.18
2023-11-07T03:33:18.834Z,14.40
2023-11-07T03:38:43.724Z,15.65
2023-11-07T03:44:05.578Z,15.55
2023-11-07T03:49:27.961Z,15.65
2023-11-07T03:54:49.556Z,12.80
2023-11-07T04:00:11.991Z,16.50
2023-11-07T04:05:33.828Z,10.75
2023-11-07T04:10:55.455Z,11.52
2023-11-07T04:16:17.246Z,12.15
2023-11-07T04:21:38.947Z,14.40
2023-11-07T04:27:00.588Z,16.23
2023-11-07T04:32:22.811Z,18.63
2023-11-07T04:37:44.552Z,14.23
2023-11-07T04:43:06.954Z,14.88
2023-11-07T04:48:28.781Z,9.55
2023-11-07T04:53:50.787Z,13.50
2023-11-07T04:59:14.394Z,12.55
2023-11-07T05:04:36.331Z,12.43
2023-11-07T05:09:59.737Z,12.60
2023-11-07T05:15:21.389Z,10.93
2023-11-07T05:20:45.844Z,9.70
2023-11-07T05:26:07.554Z,12.23
2023-11-07T05:31:29.222Z,11.52
2023-11-07T05:36:50.828Z,10.38
2023-11-07T05:42:12.898Z,13.65
2023-11-07T05:47:35.211Z,9.70
2023-11-07T05:52:58.263Z,18.15
2023-11-07T05:58:21.473Z,15.45
2023-11-07T06:03:43.164Z,12.27
2023-11-07T06:09:05.658Z,14.57
2023-11-07T06:14:27.440Z,13.90
2023-11-07T06:19:49.177Z,14.88
2023-11-07T06:25:13.534Z,12.70
2023-11-07T06:30:35.947Z,18.90
2023-11-07T06:35:57.624Z,19.23
2023-11-07T06:41:19.300Z,16.77
2023-11-07T06:46:42.785Z,16.63
2023-11-07T06:52:04.849Z,16.55
2023-11-07T06:57:26.514Z,16.90
2023-11-07T07:02:49.653Z,16.38
2023-11-07T07:08:11.843Z,19.38
2023-11-07T07:13:34.684Z,19.52
2023-11-07T07:18:56.464Z,13.27
2023-11-07T07:24:22.567Z,14.68
2023-11-07T07:29:44.973Z,12.82
2023-11-07T07:35:15.981Z,11.32
2023-11-07T07:40:39.354Z,16.85
2023-11-07T07:46:00.958Z,13.70
2023-11-07T07:51:22.583Z,13.18
2023-11-07T07:56:49.268Z,13.68
2023-11-07T08:02:11.357Z,16.48
2023-11-07T08:07:34.403Z,14.55
2023-11-07T08:12:57.540Z,12.35
2023-11-07T08:18:19.496Z,13.55
2023-11-07T08:23:41.348Z,12.20
2023-11-07T08:29:09.774Z,16.52
2023-11-07T08:34:34.015Z,10.60
2023-11-07T08:39:57.250Z,15.10
2023-11-07T08:45:21.018Z,12.15
2023-11-07T08:50:42.774Z,13.32
2023-11-07T08:56:04.641Z,16.90
2023-11-07T09:01:26.333Z,15.13
2023-11-07T09:06:47.985Z,12.93
2023-11-07T09:12:11.504Z,11.45
2023-11-07T09:17:33.988Z,14.15
2023-11-07T09:22:55.690Z,10.85
2023-11-07T09:28:17.332Z,14.60
2023-11-07T09:33:39.186Z,10.48
2023-11-07T09:39:00.894Z,12.52
2023-11-07T09:44:23.168Z,14.02
2023-11-07T09:49:46.333Z,13.27
2023-11-07T09:55:10.116Z,12.30
2023-11-07T10:00:35.024Z,10.77
2023-11-07T10:05:59.406Z,14.68
2023-11-07T10:11:21.115Z,12.05
2023-11-07T10:16:43.141Z,10.88
2023-11-07T10:22:09.535Z,11.00
2023-11-07T10:27:31.151Z,14.15
2023-11-07T10:32:57.227Z,11.30
2023-11-07T10:38:19.889Z,8.32
2023-11-07T10:43:42.558Z,6.93
2023-11-07T10:49:06.360Z,6.07
2023-11-07T10:54:31.840Z,9.43
2023-11-07T11:00:05.499Z,12.57
2023-11-07T11:05:27.879Z,5.45
2023-11-07T11:10:50.109Z,8.45
2023-11-07T11:16:13.881Z,6.55
2023-11-07T11:22:16.140Z,7.00
2023-11-07T11:27:42.896Z,4.57
2023-11-07T11:33:12.867Z,7.45
2023-11-07T11:38:40.860Z,7.50
2023-11-07T11:44:13.992Z,6.88
2023-11-07T11:49:35.699Z,5.88
2023-11-07T11:54:57.272Z,6.50
2023-11-07T12:00:21.885Z,9.02
2023-11-07T12:06:00.887Z,5.78
2023-11-07T12:11:27.007Z,8.13
2023-11-07T12:17:11.123Z,5.55
2023-11-07T12:22:34.436Z,7.93
2023-11-07T12:28:05.285Z,8.65
2023-11-07T12:33:30.396Z,6.60
2023-11-07T12:38:52.240Z,4.85
2023-11-07T12:44:16.535Z,7.45
2023-11-07T12:49:39.986Z,6.70
2023-11-07T12:55:16.957Z,6.40
2023-11-07T13:01:02.318Z,8.75
2023-11-07T13:06:24.306Z,7.72
2023-11-07T13:11:45.995Z,6.15
2023-11-07T13:17:09.463Z,9.98
2023-11-07T13:22:31.189Z,4.32
2023-11-07T13:27:54.348Z,5.97
2023-11-07T13:33:16.288Z,5.35
2023-11-07T13:38:37.968Z,5.28
2023-11-07T13:43:59.794Z,6.00
2023-11-07T13:49:22.217Z,4.45
2023-11-07T13:54:43.919Z,5.68
2023-11-07T14:00:12.444Z,7.72
2023-11-07T14:05:34.634Z,5.63
2023-11-07T14:10:56.262Z,6.22
2023-11-07T14:16:18.133Z,7.75
2023-11-07T14:21:40.454Z,3.30
2023-11-07T14:27:02.124Z,5.05
2023-11-07T14:32:23.765Z,7.20
2023-11-07T14:37:45.376Z,12.00
2023-11-07T14:43:14.670Z,5.55
2023-11-07T14:48:38.991Z,4.30
2023-11-07T14:54:01.060Z,6.03
2023-11-07T14:59:24.968Z,4.65
2023-11-07T15:04:46.652Z,6.40
2023-11-07T15:10:11.696Z,11.20
2023-11-07T15:15:34.662Z,7.53
2023-11-07T15:20:57.749Z,5.88
2023-11-07T15:26:19.452Z,7.88
2023-11-07T15:31:41.467Z,9.82
2023-11-07T15:37:03.453Z,7.00
2023-11-07T15:42:25.088Z,6.72
2023-11-07T15:47:48.042Z,8.38
2023-11-07T15:53:10.599Z,8.48
2023-11-07T15:58:32.656Z,7.40
2023-11-07T16:03:54.793Z,6.65
2023-11-07T16:09:17.334Z,5.72
2023-11-07T16:14:39.036Z,9.00
2023-11-07T16:20:01.863Z,6.88
2023-11-07T16:25:24.836Z,5.10
2023-11-07T16:30:46.556Z,10.55
2023-11-07T16:36:08.312Z,12.45
2023-11-07T16:41:32.334Z,8.35
2023-11-07T16:46:54.753Z,8.60
2023-11-07T16:52:16.961Z,11.10
2023-11-07T16:57:38.763Z,12.52
2023-11-07T17:03:00.605Z,7.20
2023-11-07T17:08:22.711Z,7.35
2023-11-07T17:13:44.311Z,6.88
2023-11-07T17:19:06.160Z,9.50
2023-11-07T17:24:28.848Z,7.18
2023-11-07T17:29:50.605Z,6.03
2023-11-07T17:35:12.319Z,7.90
2023-11-07T17:40:33.906Z,10.00
2023-11-07T17:45:55.460Z,4.35
2023-11-07T17:51:23.761Z,6.80
2023-11-07T17:56:45.393Z,7.35
2023-11-07T18:02:07.235Z,7.03
2023-11-07T18:07:29.869Z,11.52
2023-11-07T18:12:51.440Z,8.05
2023-11-07T18:18:14.311Z,9.77
2023-11-07T18:23:37.819Z,5.72
2023-11-07T18:28:59.611Z,6.35
2023-11-07T18:34:23.600Z,6.57
2023-11-07T18:39:45.827Z,7.07
2023-11-07T18:45:11.165Z,7.57
2023-11-07T18:50:32.948Z,12.43
2023-11-07T18:55:55.215Z,8.60
2023-11-07T19:01:16.846Z,8.90
2023-11-07T19:06:38.524Z,5.57
2023-11-07T19:12:02.728Z,6.43
2023-11-07T19:17:24.699Z,9.75
2023-11-07T19:22:46.343Z,9.80
2023-11-07T19:28:08.022Z,7.18
2023-11-07T19:33:29.683Z,7.50
2023-11-07T19:38:51.456Z,8.70
2023-11-07T19:44:13.076Z,7.55
2023-11-07T19:49:34.752Z,11.02
2023-11-07T19:54:57.704Z,8.60
2023-11-07T20:00:24.638Z,15.68
2023-11-07T20:05:48.204Z,9.80
2023-11-07T20:11:10.052Z,7.40
2023-11-07T20:16:31.668Z,8.25
2023-11-07T20:21:53.271Z,9.20
2023-11-07T20:27:15.408Z,5.68
2023-11-07T20:32:37.079Z,10.30
2023-11-07T20:37:58.667Z,9.18
2023-11-07T20:43:20.241Z,7.80
2023-11-07T20:48:42.051Z,6.13
2023-11-07T20:54:04.972Z,6.63
2023-11-07T20:59:27.295Z,5.63
2023-11-07T21:04:49.305Z,8.70
2023-11-07T21:10:12.117Z,8.48
2023-11-07T21:15:33.788Z,8.57
2023-11-07T21:20:55.448Z,9.32
2023-11-07T21:26:17.345Z,8.63
2023-11-07T21:31:39.956Z,13.60
2023-11-07T21:37:01.594Z,5.38
2023-11-07T21:42:23.685Z,6.13
2023-11-07T21:47:45.556Z,8.25
2023-11-07T21:53:07.187Z,7.78
2023-11-07T21:58:28.811Z,8.00
2023-11-07T22:03:50.476Z,6.72
2023-11-07T22:09:12.200Z,8.57
2023-11-07T22:14:33.801Z,5.82
2023-11-07T22:19:58.850Z,7.55
2023-11-07T22:25:20.963Z,9.30
2023-11-07T22:30:42.881Z,7.63
2023-11-07T22:36:06.877Z,9.35
2023-11-07T22:41:28.700Z,8.40
2023-11-07T22:46:50.280Z,12.27
2023-11-07T22:52:14.733Z,11.02
2023-11-07T22:57:36.375Z,8.13
2023-11-07T23:03:01.539Z,8.35
2023-11-07T23:08:23.248Z,11.00
2023-11-07T23:13:44.819Z,8.77
2023-11-07T23:19:06.855Z,12.93
2023-11-07T23:24:28.482Z,6.53
2023-11-07T23:29:55.157Z,8.73
2023-11-07T23:35:18.347Z,13.13
2023-11-07T23:40:40.563Z,11.75
2023-11-07T23:46:02.491Z,11.30
2023-11-07T23:51:24.273Z,10.27
2023-11-07T23:56:45.899Z,11.55
